Time;durP1;ratioP1;P1;durP2;ratioP2;P2;SDS_P1;SDS_P2;PMS_P1;PMS_P2;Temp;Humidity;BMP_temperature;BMP_pressure;BME280_temperature;BME280_humidity;BME280_pressure;Samples;Min_cycle;Max_cycle;Signal;HPM_P1;HPM_P2
2023/11/27 00:00:35;;;;;;;4.03;0.45;;;;;;;2.32;62.51;100613.16;5099445;28;20066;-70
2023/11/27 00:03:01;;;;;;;3.15;0.40;;;;;;;2.29;62.59;100603.88;5094229;28;20074;-70
2023/11/27 00:05:26;;;;;;;1.35;0.30;;;;;;;2.26;62.76;100598.06;5078040;28;20032;-71
2023/11/27 00:07:52;;;;;;;2.08;0.40;;;;;;;2.25;62.56;100593.84;5097512;28;20028;-71
2023/11/27 00:10:17;;;;;;;1.80;0.28;;;;;;;2.30;62.23;100591.84;5092093;28;20068;-71
2023/11/27 00:12:43;;;;;;;1.55;0.35;;;;;;;2.38;61.69;100593.94;5097022;28;20039;-70
2023/11/27 00:15:09;;;;;;;2.15;0.35;;;;;;;2.47;61.17;100588.28;5094067;28;20066;-70
2023/11/27 00:17:34;;;;;;;1.27;0.10;;;;;;;2.59;59.36;100592.69;5095801;28;20081;-72
2023/11/27 00:19:59;;;;;;;2.03;0.20;;;;;;;2.60;59.22;100582.31;5092585;28;20076;-71
2023/11/27 00:22:25;;;;;;;1.23;0.20;;;;;;;2.62;59.42;100579.66;5095593;28;20169;-71
2023/11/27 00:24:50;;;;;;;2.25;0.20;;;;;;;2.60;59.03;100578.91;5095521;28;20488;-71
2023/11/27 00:27:17;;;;;;;0.57;0.20;;;;;;;2.58;59.98;100576.44;5094788;28;20028;-71
2023/11/27 00:29:42;;;;;;;3.30;0.20;;;;;;;2.52;60.28;100570.81;5093971;28;20540;-71
2023/11/27 00:32:08;;;;;;;1.67;0.30;;;;;;;2.47;60.55;100578.81;5092777;28;20035;-71
2023/11/27 00:34:34;;;;;;;1.45;0.32;;;;;;;2.41;61.03;100573.19;5071893;28;20040;-71
2023/11/27 00:36:59;;;;;;;4.30;0.30;;;;;;;2.35;61.56;100553.84;5089538;28;20028;-71
2023/11/27 00:39:25;;;;;;;0.30;0.10;;;;;;;2.32;61.96;100562.56;5097325;28;20035;-71
2023/11/27 00:41:50;;;;;;;2.45;0.30;;;;;;;2.31;61.88;100557.50;5095785;28;20047;-72
2023/11/27 00:44:16;;;;;;;3.88;0.25;;;;;;;2.28;61.93;100558.50;5095052;28;20024;-71
2023/11/27 00:46:41;;;;;;;1.13;0.20;;;;;;;2.25;62.03;100550.97;5096083;28;20439;-71
2023/11/27 00:49:07;;;;;;;0.57;0.20;;;;;;;2.20;61.99;100550.41;5094267;28;20031;-71
2023/11/27 00:51:32;;;;;;;1.30;0.20;;;;;;;2.17;62.40;100544.63;5093378;28;20424;-71
2023/11/27 00:53:58;;;;;;;0.85;0.22;;;;;;;2.07;63.34;100544.31;5101031;28;20023;-71
2023/11/27 00:56:24;;;;;;;2.92;0.68;;;;;;;2.04;63.09;100541.09;5101164;28;20399;-71
2023/11/27 00:58:50;;;;;;;2.28;0.57;;;;;;;2.03;62.50;100534.31;5092765;28;20509;-71
2023/11/27 01:01:16;;;;;;;1.05;0.30;;;;;;;2.00;62.83;100530.16;5091680;28;20119;-71
2023/11/27 01:03:41;;;;;;;1.75;0.40;;;;;;;1.98;62.97;100532.00;5089955;28;20062;-71
2023/11/27 01:06:13;;;;;;;1.20;0.30;;;;;;;2.00;62.06;100530.16;5093524;28;20064;-71
2023/11/27 01:08:40;;;;;;;1.92;0.22;;;;;;;2.02;62.54;100528.34;5078295;28;20530;-71
2023/11/27 01:11:06;;;;;;;1.70;0.40;;;;;;;2.01;62.25;100521.53;5092670;28;20438;-72
2023/11/27 01:13:31;;;;;;;1.15;0.10;;;;;;;2.03;62.25;100527.41;5094160;28;20027;-71
2023/11/27 01:15:57;;;;;;;1.27;0.22;;;;;;;1.99;62.70;100524.19;5094198;28;20036;-71
2023/11/27 01:18:23;;;;;;;0.90;0.20;;;;;;;1.99;62.59;100520.81;5094237;28;20027;-72
2023/11/27 01:20:48;;;;;;;2.15;0.28;;;;;;;1.95;62.93;100520.16;5097100;28;20032;-72
2023/11/27 01:23:14;;;;;;;1.90;0.20;;;;;;;1.94;63.07;100523.63;5090813;28;20032;-72
2023/11/27 01:25:40;;;;;;;1.88;0.30;;;;;;;1.90;63.43;100522.16;5092578;28;20080;-71
2023/11/27 01:28:06;;;;;;;1.40;0.30;;;;;;;1.83;63.63;100515.75;5090202;28;20542;-71
2023/11/27 01:30:32;;;;;;;0.70;0.10;;;;;;;1.77;64.38;100507.56;5101670;28;20471;-71
2023/11/27 01:32:57;;;;;;;1.40;0.22;;;;;;;1.85;62.81;100505.38;5094020;28;20032;-71
2023/11/27 01:35:23;;;;;;;0.40;0.20;;;;;;;1.99;61.68;100505.38;5094072;28;20502;-72
2023/11/27 01:37:48;;;;;;;0.68;0.13;;;;;;;2.10;61.22;100495.31;5098695;28;20040;-71
2023/11/27 01:40:14;;;;;;;2.08;0.20;;;;;;;2.23;60.57;100509.09;5099961;28;20038;-72
2023/11/27 01:42:40;;;;;;;2.03;0.10;;;;;;;2.32;59.33;100494.88;5094041;28;20054;-70
2023/11/27 01:45:06;;;;;;;0.55;0.10;;;;;;;2.30;59.90;100500.13;5102577;28;20059;-71
2023/11/27 01:47:32;;;;;;;1.15;0.10;;;;;;;2.28;60.13;100496.81;5097728;28;20054;-71
2023/11/27 01:49:59;;;;;;;1.58;0.20;;;;;;;2.25;61.08;100498.72;5091892;28;20380;-70
2023/11/27 01:52:26;;;;;;;0.80;0.32;;;;;;;2.16;61.09;100500.09;5100005;28;20559;-70
2023/11/27 01:54:52;;;;;;;1.98;0.10;;;;;;;2.13;60.77;100495.13;5096177;28;20415;-71
2023/11/27 01:57:20;;;;;;;1.52;0.13;;;;;;;2.17;60.77;100494.03;5079222;28;20172;-72
2023/11/27 01:59:47;;;;;;;2.50;0.20;;;;;;;2.18;61.17;100498.25;5096716;28;20088;-72
2023/11/27 02:02:16;;;;;;;1.35;0.10;;;;;;;2.17;60.74;100495.78;5093878;28;20032;-71
2023/11/27 02:04:41;;;;;;;0.63;0.20;;;;;;;2.19;60.44;100486.22;5095584;28;20499;-71
2023/11/27 02:07:08;;;;;;;1.98;0.30;;;;;;;2.24;60.51;100490.19;5092115;28;20036;-72
2023/11/27 02:09:33;;;;;;;1.33;0.20;;;;;;;2.25;60.29;100491.84;5097694;28;20027;-71
2023/11/27 02:11:59;;;;;;;2.13;0.47;;;;;;;2.19;60.46;100491.38;5094492;28;20077;-71
2023/11/27 02:14:24;;;;;;;1.35;0.28;;;;;;;2.13;60.63;100484.84;5084582;28;20040;-70
2023/11/27 02:16:50;;;;;;;0.60;0.10;;;;;;;2.13;60.59;100492.56;5097526;28;20115;-71
2023/11/27 02:19:16;;;;;;;0.45;0.10;;;;;;;2.16;60.19;100487.25;5099411;28;20390;-71
2023/11/27 02:21:43;;;;;;;1.08;0.20;;;;;;;2.12;60.70;100483.19;5094473;28;20119;-71
2023/11/27 02:24:09;;;;;;;1.95;0.20;;;;;;;2.08;60.90;100486.03;5097005;28;20120;-70
2023/11/27 02:26:34;;;;;;;1.67;0.10;;;;;;;2.02;61.23;100489.78;5093016;28;20034;-70
2023/11/27 02:29:00;;;;;;;2.40;0.20;;;;;;;1.96;61.38;100487.56;5096466;28;20028;-71
2023/11/27 02:31:25;;;;;;;0.57;0.20;;;;;;;1.83;62.38;100484.06;5099902;28;20039;-71
2023/11/27 02:33:51;;;;;;;1.02;0.20;;;;;;;1.74;62.35;100480.28;5095077;28;20028;-70
2023/11/27 02:36:17;;;;;;;0.90;0.20;;;;;;;1.68;63.04;100490.91;5097331;28;20063;-71
2023/11/27 02:38:42;;;;;;;2.35;0.20;;;;;;;1.65;62.97;100483.38;5077983;28;20403;-71
2023/11/27 02:41:08;;;;;;;1.05;0.20;;;;;;;1.59;63.64;100482.00;5097704;28;20023;-70
2023/11/27 02:43:34;;;;;;;0.95;0.43;;;;;;;1.61;63.60;100484.47;5097989;28;20040;-71
2023/11/27 02:46:00;;;;;;;1.33;0.10;;;;;;;1.64;62.78;100474.84;5092742;28;20024;-71
2023/11/27 02:48:26;;;;;;;0.88;0.20;;;;;;;1.64;62.98;100471.44;5095184;28;20036;-71
2023/11/27 02:50:51;;;;;;;0.95;0.10;;;;;;;1.71;62.05;100464.22;5098264;28;20138;-71
2023/11/27 02:53:17;;;;;;;1.95;0.32;;;;;;;1.77;62.02;100456.16;5099353;28;20115;-70
2023/11/27 02:55:42;;;;;;;0.63;0.20;;;;;;;1.83;61.39;100455.81;5094005;28;20086;-70
2023/11/27 02:58:08;;;;;;;3.38;0.35;;;;;;;1.83;61.64;100459.22;5101814;28;20024;-71
2023/11/27 03:00:34;;;;;;;0.95;0.10;;;;;;;1.84;61.53;100460.03;5094245;28;20050;-72
2023/11/27 03:03:00;;;;;;;3.13;0.35;;;;;;;1.80;61.79;100454.25;5094349;28;20028;-71
2023/11/27 03:05:26;;;;;;;0.80;0.28;;;;;;;1.76;62.17;100446.81;5102151;28;20030;-70
2023/11/27 03:07:51;;;;;;;0.88;0.17;;;;;;;1.67;62.45;100454.13;5078414;28;20036;-71
2023/11/27 03:10:17;;;;;;;1.33;0.20;;;;;;;1.62;63.05;100461.28;5093166;28;20028;-71
2023/11/27 03:12:43;;;;;;;0.60;0.17;;;;;;;1.55;63.21;100457.38;5097106;28;20138;-71
2023/11/27 03:15:09;;;;;;;1.75;0.20;;;;;;;1.53;63.91;100455.81;5096838;28;20060;-70
2023/11/27 03:17:37;;;;;;;0.38;0.13;;;;;;;1.47;63.77;100461.31;5091528;28;20036;-70
2023/11/27 03:20:04;;;;;;;5.00;0.20;;;;;;;1.37;64.72;100466.16;5095028;28;20024;-70
2023/11/27 03:22:30;;;;;;;2.53;0.40;;;;;;;1.30;65.33;100460.53;5096972;28;20027;-70
2023/11/27 03:24:56;;;;;;;1.30;0.10;;;;;;;1.27;64.94;100462.44;5091671;28;20044;-70
2023/11/27 03:27:22;;;;;;;1.95;0.45;;;;;;;1.26;66.17;100460.78;5098920;28;20030;-70
2023/11/27 03:29:48;;;;;;;2.60;0.10;;;;;;;1.30;65.14;100457.13;5092182;28;20419;-71
2023/11/27 03:32:14;;;;;;;0.52;0.10;;;;;;;1.30;65.16;100454.56;5091295;28;20028;-70
2023/11/27 03:34:40;;;;;;;1.63;0.20;;;;;;;1.33;64.52;100464.66;5096039;28;20059;-71
2023/11/27 03:37:05;;;;;;;1.55;0.20;;;;;;;1.33;65.10;100454.41;5091956;28;20436;-70
2023/11/27 03:39:31;;;;;;;0.50;0.20;;;;;;;1.39;64.35;100451.50;5094292;28;20111;-70
2023/11/27 03:41:56;;;;;;;2.88;0.15;;;;;;;1.51;63.14;100453.34;5093629;28;20031;-71
2023/11/27 03:44:21;;;;;;;1.80;0.30;;;;;;;1.56;62.91;100450.50;5096393;28;20101;-70
2023/11/27 03:46:47;;;;;;;0.90;0.20;;;;;;;1.58;62.91;100454.66;5089628;28;21830;-71
2023/11/27 03:49:12;;;;;;;1.77;0.30;;;;;;;1.59;63.33;100451.16;5091634;28;20093;-70
2023/11/27 03:51:38;;;;;;;2.03;0.32;;;;;;;1.58;63.44;100449.50;5098314;28;20040;-70
2023/11/27 03:54:05;;;;;;;0.90;0.25;;;;;;;1.60;63.19;100450.25;5097811;28;20042;-72
2023/11/27 03:56:31;;;;;;;0.65;0.20;;;;;;;1.63;63.67;100449.25;5099914;28;20085;-71
2023/11/27 03:58:56;;;;;;;0.32;0.10;;;;;;;1.71;61.79;100448.81;5079392;28;20044;-71
2023/11/27 04:01:21;;;;;;;2.70;0.30;;;;;;;1.75;62.11;100440.84;5094346;28;20119;-70
2023/11/27 04:03:47;;;;;;;2.88;0.10;;;;;;;1.79;62.85;100441.50;5096903;28;20088;-70
2023/11/27 04:06:22;;;;;;;2.05;0.20;;;;;;;1.80;62.20;100438.00;5093364;28;20055;-70
2023/11/27 04:08:48;;;;;;;1.80;0.20;;;;;;;1.74;62.82;100431.50;5096816;28;20027;-70
2023/11/27 04:11:14;;;;;;;0.70;0.20;;;;;;;1.73;62.93;100439.28;5091487;28;20051;-70
2023/11/27 04:13:40;;;;;;;1.33;0.10;;;;;;;1.74;62.91;100433.22;5091934;28;20028;-70
2023/11/27 04:16:06;;;;;;;0.50;0.22;;;;;;;1.74;63.45;100438.38;5090221;28;20062;-70
2023/11/27 04:18:32;;;;;;;0.20;0.10;;;;;;;1.78;62.65;100432.13;5093210;28;20035;-70
2023/11/27 04:20:58;;;;;;;1.10;0.10;;;;;;;1.81;62.25;100435.34;5091335;28;20035;-70
2023/11/27 04:23:23;;;;;;;0.75;0.10;;;;;;;1.83;62.52;100427.56;5095740;28;20050;-70
2023/11/27 04:25:49;;;;;;;0.55;0.10;;;;;;;1.79;62.35;100436.38;5074790;28;20036;-71
2023/11/27 04:28:15;;;;;;;0.32;0.10;;;;;;;1.80;62.50;100436.28;5090626;28;20051;-70
2023/11/27 04:30:40;;;;;;;3.33;0.20;;;;;;;1.78;62.92;100439.84;5088447;28;20097;-72
2023/11/27 04:33:06;;;;;;;0.70;0.10;;;;;;;1.76;62.82;100446.81;5096208;28;20028;-70
2023/11/27 04:35:31;;;;;;;2.25;0.20;;;;;;;1.74;62.48;100438.38;5093182;28;20028;-71
2023/11/27 04:37:56;;;;;;;0.63;0.15;;;;;;;1.73;62.44;100437.53;5096857;28;20024;-71
2023/11/27 04:40:22;;;;;;;0.47;0.10;;;;;;;1.73;62.75;100436.72;5095318;28;20114;-72
2023/11/27 04:42:47;;;;;;;3.33;0.30;;;;;;;1.66;63.42;100433.66;5090603;28;20162;-71
2023/11/27 04:45:13;;;;;;;0.95;0.20;;;;;;;1.64;62.97;100443.19;5090238;28;20092;-71
2023/11/27 04:47:39;;;;;;;1.15;0.08;;;;;;;1.64;63.32;100441.47;5081992;28;20050;-71
2023/11/27 04:50:06;;;;;;;2.85;0.20;;;;;;;1.63;63.50;100437.25;5090903;28;20485;-71
2023/11/27 04:52:32;;;;;;;0.47;0.10;;;;;;;1.63;63.76;100437.25;5090379;28;20036;-70
2023/11/27 04:54:57;;;;;;;2.88;0.30;;;;;;;1.59;63.32;100440.06;5093714;28;20127;-70
2023/11/27 04:57:24;;;;;;;2.20;0.30;;;;;;;1.56;63.18;100435.94;5098414;28;20506;-71
2023/11/27 04:59:50;;;;;;;0.50;0.15;;;;;;;1.53;63.88;100437.84;5094607;28;20450;-70
2023/11/27 05:02:15;;;;;;;1.60;0.28;;;;;;;1.58;63.66;100438.41;5095467;28;20023;-72
2023/11/27 05:04:41;;;;;;;1.13;0.30;;;;;;;1.60;63.83;100432.28;5091167;28;20024;-70
2023/11/27 05:07:07;;;;;;;0.70;0.20;;;;;;;1.62;63.62;100430.44;5094336;28;20031;-71
2023/11/27 05:09:33;;;;;;;1.60;0.20;;;;;;;1.66;63.35;100426.78;5099594;28;20110;-71
2023/11/27 05:11:58;;;;;;;0.90;0.20;;;;;;;1.67;63.47;100420.75;5094943;28;20439;-70
2023/11/27 05:14:24;;;;;;;1.77;0.20;;;;;;;1.67;63.34;100413.03;5098524;28;20063;-70
2023/11/27 05:16:49;;;;;;;1.83;0.10;;;;;;;1.67;63.21;100415.59;5096569;28;20032;-70
2023/11/27 05:19:15;;;;;;;0.40;0.10;;;;;;;1.66;63.82;100410.56;5098280;28;20036;-71
2023/11/27 05:21:41;;;;;;;2.00;0.20;;;;;;;1.67;63.66;100405.31;5094855;28;20032;-70
2023/11/27 05:24:07;;;;;;;2.60;0.20;;;;;;;1.67;64.09;100412.22;5100443;28;20113;-70
2023/11/27 05:26:35;;;;;;;1.05;0.20;;;;;;;1.71;63.89;100403.41;5094039;28;20051;-70
2023/11/27 05:29:01;;;;;;;0.43;0.13;;;;;;;1.75;63.14;100409.19;5094011;28;20490;-73
2023/11/27 05:31:26;;;;;;;3.40;0.30;;;;;;;1.74;63.83;100402.41;5093014;28;20028;-71
2023/11/27 05:33:52;;;;;;;2.22;0.40;;;;;;;1.67;63.91;100404.50;5105964;28;20505;-70
2023/11/27 05:36:17;;;;;;;0.70;0.40;;;;;;;1.63;64.28;100406.41;5100156;28;20044;-70
2023/11/27 05:38:43;;;;;;;0.77;0.20;;;;;;;1.65;63.95;100404.59;5099383;28;20027;-70
2023/11/27 05:41:12;;;;;;;1.27;0.30;;;;;;;1.63;64.02;100403.84;5094227;28;20028;-70
2023/11/27 05:43:37;;;;;;;1.23;0.20;;;;;;;1.56;64.48;100402.56;5099522;28;20032;-71
2023/11/27 05:46:04;;;;;;;1.67;0.30;;;;;;;1.55;64.57;100406.03;5078094;28;20030;-71
2023/11/27 05:48:29;;;;;;;1.55;0.40;;;;;;;1.53;64.85;100405.28;5097154;28;20086;-70
2023/11/27 05:50:56;;;;;;;0.98;0.30;;;;;;;1.56;64.85;100409.44;5101345;28;20032;-71
2023/11/27 05:53:21;;;;;;;2.75;0.52;;;;;;;1.65;64.68;100403.75;5091396;28;20391;-71
2023/11/27 05:55:46;;;;;;;0.90;0.20;;;;;;;1.72;64.19;100399.09;5097506;28;20043;-71
2023/11/27 05:58:12;;;;;;;2.45;0.38;;;;;;;1.75;64.16;100401.50;5087464;28;20038;-71
2023/11/27 06:00:38;;;;;;;0.90;0.30;;;;;;;1.79;64.07;100401.22;5096262;28;20070;-71
2023/11/27 06:03:04;;;;;;;0.95;0.28;;;;;;;1.80;63.42;100400.31;5096725;28;20586;-71
2023/11/27 06:05:29;;;;;;;1.90;0.20;;;;;;;1.74;64.01;100392.97;5093207;28;20441;-71
2023/11/27 06:07:55;;;;;;;1.30;0.20;;;;;;;1.65;64.86;100391.75;5101058;28;20471;-71
2023/11/27 06:10:20;;;;;;;1.30;0.30;;;;;;;1.66;64.82;100403.69;5092300;28;20078;-72
2023/11/27 06:12:46;;;;;;;1.10;0.20;;;;;;;1.65;64.51;100402.03;5100661;28;20066;-71
2023/11/27 06:15:14;;;;;;;1.52;0.20;;;;;;;1.63;64.88;100401.28;5093115;28;20501;-70
2023/11/27 06:17:45;;;;;;;1.25;0.20;;;;;;;1.64;64.99;100400.38;5097560;28;20143;-72
2023/11/27 06:20:20;;;;;;;1.75;0.30;;;;;;;1.65;64.75;100398.63;5094393;28;20032;-71
2023/11/27 06:22:45;;;;;;;1.70;0.20;;;;;;;1.67;64.65;100396.78;5100006;28;20027;-71
2023/11/27 06:25:11;;;;;;;2.58;0.30;;;;;;;1.67;65.01;100397.63;5092999;28;20492;-71
2023/11/27 06:27:36;;;;;;;10.05;0.30;;;;;;;1.66;64.97;100395.97;5093053;28;20035;-71
2023/11/27 06:30:03;;;;;;;2.90;0.28;;;;;;;1.63;65.29;100393.56;5093667;28;20024;-71
2023/11/27 06:32:29;;;;;;;4.47;0.20;;;;;;;1.61;65.63;100387.72;5093017;28;20043;-71
2023/11/27 06:34:55;;;;;;;3.50;0.40;;;;;;;1.59;65.55;100389.53;5084829;28;20059;-71
2023/11/27 06:37:20;;;;;;;1.33;0.40;;;;;;;1.63;65.21;100388.44;5099518;28;20118;-71
2023/11/27 06:39:46;;;;;;;4.35;0.20;;;;;;;1.67;65.40;100392.50;5093298;28;20090;-71
2023/11/27 06:42:12;;;;;;;1.75;0.60;;;;;;;1.76;65.02;100392.88;5093055;28;20024;-71
2023/11/27 06:44:41;;;;;;;4.25;0.20;;;;;;;1.85;64.31;100390.59;5092659;28;20036;-71
2023/11/27 06:47:07;;;;;;;2.92;0.28;;;;;;;1.88;64.39;100385.28;5092625;28;20032;-72
2023/11/27 06:49:33;;;;;;;1.88;0.47;;;;;;;1.93;64.36;100397.81;5095164;28;20058;-72
2023/11/27 06:52:00;;;;;;;2.28;0.60;;;;;;;1.90;64.47;100393.69;5098114;28;20059;-72
2023/11/27 06:54:25;;;;;;;3.17;1.45;;;;;;;1.89;64.71;100386.88;5098123;28;20058;-71
2023/11/27 06:56:51;;;;;;;2.15;0.57;;;;;;;1.91;64.85;100390.19;5096061;28;20028;-72
2023/11/27 06:59:18;;;;;;;2.80;0.32;;;;;;;1.94;64.92;100384.06;5095923;28;20291;-71
2023/11/27 07:01:43;;;;;;;2.03;0.30;;;;;;;1.99;63.89;100397.44;5098527;28;20122;-73
2023/11/27 07:04:09;;;;;;;0.77;0.25;;;;;;;2.00;64.09;100394.78;5095007;28;20435;-71
2023/11/27 07:06:36;;;;;;;8.90;0.40;;;;;;;2.00;64.05;100393.97;5098404;28;20550;-73
2023/11/27 07:09:04;;;;;;;1.33;0.10;;;;;;;2.06;63.94;100387.63;5101592;28;20058;-71
2023/11/27 07:11:34;;;;;;;3.08;0.50;;;;;;;2.11;64.32;100395.91;5091804;28;20032;-71
2023/11/27 07:14:03;;;;;;;0.82;0.20;;;;;;;2.13;64.23;100389.75;5096319;28;20554;-73
2023/11/27 07:16:29;;;;;;;2.47;0.30;;;;;;;2.10;64.47;100389.94;5100880;28;20058;-71
2023/11/27 07:18:58;;;;;;;1.27;0.20;;;;;;;2.12;64.57;100382.97;5088627;28;20074;-71
2023/11/27 07:21:25;;;;;;;1.60;0.30;;;;;;;2.17;64.31;100392.97;5090312;28;20039;-71
2023/11/27 07:23:56;;;;;;;1.25;0.20;;;;;;;2.22;64.41;100390.94;5089982;28;20161;-73
2023/11/27 07:26:26;;;;;;;3.22;0.38;;;;;;;2.30;64.10;100391.31;5073267;28;20508;-71
2023/11/27 07:28:53;;;;;;;0.68;0.20;;;;;;;2.39;63.07;100384.75;5072109;28;20036;-72
2023/11/27 07:31:19;;;;;;;4.20;0.50;;;;;;;2.45;63.53;100381.81;5071070;28;20043;-71
2023/11/27 07:33:44;;;;;;;0.80;0.20;;;;;;;2.50;63.31;100382.34;5071525;28;20575;-72
2023/11/27 07:36:10;;;;;;;0.85;0.20;;;;;;;2.51;63.20;100376.28;5073283;28;20020;-72
2023/11/27 07:38:36;;;;;;;3.90;0.40;;;;;;;2.53;63.18;100374.44;5068895;28;20542;-70
2023/11/27 07:41:05;;;;;;;6.32;0.40;;;;;;;2.47;63.73;100373.06;5073702;28;20032;-70
2023/11/27 07:43:34;;;;;;;5.53;0.40;;;;;;;2.49;63.55;100383.25;5071263;28;20036;-71
2023/11/27 07:46:00;;;;;;;2.90;0.30;;;;;;;2.52;63.46;100383.06;5072692;28;20020;-71
2023/11/27 07:48:25;;;;;;;1.55;0.52;;;;;;;2.56;63.56;100381.97;5070506;28;20111;-72
2023/11/27 07:50:51;;;;;;;3.17;0.20;;;;;;;2.60;63.62;100383.44;5068372;28;20466;-69
2023/11/27 07:53:20;;;;;;;4.75;0.35;;;;;;;2.66;63.13;100375.34;5069412;28;20151;-69
2023/11/27 07:55:46;;;;;;;0.80;0.20;;;;;;;2.74;63.07;100380.00;5069979;28;20024;-70
2023/11/27 07:58:14;;;;;;;2.30;0.20;;;;;;;2.76;64.01;100373.84;5076441;28;20037;-69
2023/11/27 08:00:40;;;;;;;1.63;0.40;;;;;;;2.78;64.00;100369.41;5069348;28;20079;-69
2023/11/27 08:03:06;;;;;;;1.17;0.20;;;;;;;2.81;63.67;100365.84;5072188;28;20040;-70
2023/11/27 08:05:31;;;;;;;6.60;0.30;;;;;;;2.84;63.07;100363.84;5068874;28;20025;-69
2023/11/27 08:07:57;;;;;;;0.85;0.30;;;;;;;2.79;63.11;100365.94;5076495;28;20131;-69
2023/11/27 08:10:23;;;;;;;1.58;0.30;;;;;;;2.77;63.29;100351.50;5070016;28;20123;-69
2023/11/27 08:12:49;;;;;;;1.10;0.40;;;;;;;2.87;63.67;100349.97;5069014;28;20032;-69
2023/11/27 08:15:18;;;;;;;1.48;0.30;;;;;;;2.99;63.25;100351.75;5069196;28;20079;-71
2023/11/27 08:17:49;;;;;;;1.00;0.13;;;;;;;3.06;62.25;100349.63;5068287;28;20064;-69
2023/11/27 08:20:15;;;;;;;2.22;0.30;;;;;;;3.08;62.16;100345.19;5069128;28;20483;-69
2023/11/27 08:22:44;;;;;;;1.35;0.30;;;;;;;3.11;63.08;100337.28;5070576;28;20047;-71
2023/11/27 08:25:11;;;;;;;1.23;0.65;;;;;;;3.16;62.48;100340.38;5068186;28;20118;-70
2023/11/27 08:27:39;;;;;;;1.63;0.30;;;;;;;3.23;62.27;100332.16;5094513;28;20028;-70
2023/11/27 08:30:09;;;;;;;3.22;0.30;;;;;;;3.30;62.39;100332.59;5095958;28;20023;-69
2023/11/27 08:32:36;;;;;;;1.60;0.40;;;;;;;3.38;62.23;100327.72;5094437;28;20019;-69
2023/11/27 08:35:01;;;;;;;1.20;0.40;;;;;;;3.39;62.69;100319.06;5091180;28;20030;-69
2023/11/27 08:37:27;;;;;;;0.75;0.20;;;;;;;3.42;61.98;100321.44;5098852;28;20032;-69
2023/11/27 08:39:53;;;;;;;1.90;0.60;;;;;;;3.48;62.38;100321.03;5096487;28;20027;-69
2023/11/27 08:42:19;;;;;;;1.92;0.30;;;;;;;3.55;61.74;100319.69;5093511;28;20063;-69
2023/11/27 08:44:44;;;;;;;1.08;0.20;;;;;;;3.61;62.17;100321.88;5089734;28;20101;-70
2023/11/27 08:47:10;;;;;;;3.10;0.52;;;;;;;3.65;61.83;100325.88;5091047;28;20387;-69
2023/11/27 08:49:35;;;;;;;2.25;0.32;;;;;;;3.72;61.89;100318.56;5098185;28;20454;-68
2023/11/27 08:52:01;;;;;;;5.03;0.88;;;;;;;3.77;61.02;100320.84;5090930;28;20024;-70
2023/11/27 08:54:32;;;;;;;3.30;0.60;;;;;;;3.78;61.17;100317.34;5090839;28;20036;-69
2023/11/27 08:56:58;;;;;;;1.40;0.52;;;;;;;3.82;61.62;100318.75;5082742;28;20028;-69
2023/11/27 08:59:25;;;;;;;1.45;0.20;;;;;;;3.86;61.16;100320.19;5090728;28;20138;-69
2023/11/27 09:01:51;;;;;;;1.70;0.40;;;;;;;3.90;60.82;100316.47;5071824;28;20028;-69
2023/11/27 09:04:18;;;;;;;1.85;0.40;;;;;;;3.95;60.86;100319.56;5090680;28;20031;-69
2023/11/27 09:06:44;;;;;;;0.95;0.30;;;;;;;4.01;60.13;100319.13;5089745;28;20036;-69
2023/11/27 09:09:11;;;;;;;1.42;0.20;;;;;;;4.06;61.00;100317.06;5090320;28;20080;-69
2023/11/27 09:11:37;;;;;;;0.70;0.20;;;;;;;4.12;59.96;100319.22;5089816;28;20035;-70
2023/11/27 09:14:02;;;;;;;1.50;0.35;;;;;;;4.18;60.21;100316.22;5090536;28;20384;-69
2023/11/27 09:16:27;;;;;;;1.23;0.30;;;;;;;4.26;59.84;100313.91;5090210;28;20407;-69
2023/11/27 09:18:53;;;;;;;2.33;0.40;;;;;;;4.37;60.00;100307.16;5089824;28;20054;-69
2023/11/27 09:21:19;;;;;;;2.35;0.40;;;;;;;4.47;59.74;100321.06;5092077;28;20036;-69
2023/11/27 09:23:44;;;;;;;2.08;0.38;;;;;;;4.55;59.12;100318.75;5091926;28;20133;-68
2023/11/27 09:26:09;;;;;;;1.83;0.38;;;;;;;4.60;58.94;100316.69;5090216;28;20043;-69
2023/11/27 09:28:35;;;;;;;1.85;0.38;;;;;;;4.65;59.01;100319.75;5089755;28;20028;-71
2023/11/27 09:31:01;;;;;;;4.32;0.20;;;;;;;4.70;59.52;100315.09;5090265;28;20028;-71
2023/11/27 09:33:27;;;;;;;1.02;0.20;;;;;;;4.78;58.48;100317.91;5090330;28;20028;-69
2023/11/27 09:35:53;;;;;;;2.70;0.30;;;;;;;4.89;59.02;100320.53;5089845;28;20028;-69
2023/11/27 09:38:18;;;;;;;1.77;0.40;;;;;;;4.95;58.18;100321.88;5090585;28;20462;-69
2023/11/27 09:40:44;;;;;;;0.77;0.20;;;;;;;4.99;58.30;100307.78;5089762;28;20063;-70
2023/11/27 09:43:09;;;;;;;6.07;0.50;;;;;;;5.00;58.92;100302.53;5090210;28;20028;-69
2023/11/27 09:45:36;;;;;;;1.60;0.45;;;;;;;5.03;58.39;100303.22;5089627;28;20024;-69
2023/11/27 09:48:10;;;;;;;2.50;0.20;;;;;;;5.05;58.36;100301.34;5090053;28;20122;-69
2023/11/27 09:50:36;;;;;;;1.33;0.20;;;;;;;5.06;58.65;100300.41;5089537;28;20077;-69
2023/11/27 09:53:05;;;;;;;1.33;0.30;;;;;;;5.02;58.35;100291.25;5090144;28;20028;-71
2023/11/27 09:55:38;;;;;;;2.05;0.32;;;;;;;5.00;58.60;100291.38;5092030;28;20089;-69
2023/11/27 09:58:08;;;;;;;1.60;0.30;;;;;;;5.05;58.44;100291.03;5094032;28;20028;-69
2023/11/27 10:00:34;;;;;;;5.50;0.40;;;;;;;5.04;57.99;100279.06;5093379;28;20028;-69
2023/11/27 10:03:02;;;;;;;3.13;0.77;;;;;;;5.11;58.66;100275.09;5093793;28;20070;-69
2023/11/27 10:05:27;;;;;;;1.48;0.35;;;;;;;5.16;58.59;100276.38;5093598;28;20024;-69
2023/11/27 10:07:54;;;;;;;2.60;0.40;;;;;;;5.20;59.20;100274.41;5093166;28;20077;-69
2023/11/27 10:10:26;;;;;;;1.58;0.38;;;;;;;5.21;58.96;100273.44;5093433;28;20054;-69
2023/11/27 10:13:03;;;;;;;1.80;0.30;;;;;;;5.26;58.80;100268.75;5093141;28;20020;-69
2023/11/27 10:15:30;;;;;;;3.03;0.35;;;;;;;5.34;58.62;100276.75;5093146;28;20028;-69
2023/11/27 10:17:56;;;;;;;0.85;0.38;;;;;;;5.41;58.48;100262.44;5093602;28;20139;-69
2023/11/27 10:20:24;;;;;;;2.08;0.30;;;;;;;5.47;58.17;100255.97;5093580;28;20028;-69
2023/11/27 10:22:50;;;;;;;0.60;0.20;;;;;;;5.50;58.12;100250.59;5092863;28;20527;-70
2023/11/27 10:25:16;;;;;;;4.15;0.38;;;;;;;5.51;57.84;100247.88;5092902;28;20043;-69
2023/11/27 10:27:43;;;;;;;1.60;0.30;;;;;;;5.57;58.12;100239.66;5092920;28;20032;-69
2023/11/27 10:30:25;;;;;;;1.27;0.30;;;;;;;5.66;58.30;100228.63;5093203;28;20032;-69
2023/11/27 10:32:52;;;;;;;1.05;0.10;;;;;;;5.75;58.70;100228.81;5092845;28;20452;-69
2023/11/27 10:35:20;;;;;;;1.20;0.30;;;;;;;5.74;59.19;100228.00;5074999;28;20562;-69
2023/11/27 10:37:49;;;;;;;1.63;0.30;;;;;;;5.83;57.76;100222.13;5092796;28;20494;-68
2023/11/27 10:40:16;;;;;;;0.75;0.20;;;;;;;5.97;57.41;100223.66;5093145;28;20027;-69
2023/11/27 10:42:48;;;;;;;2.67;0.45;;;;;;;5.99;57.14;100211.44;5092744;28;20032;-69
2023/11/27 10:45:19;;;;;;;0.75;0.22;;;;;;;5.96;58.02;100207.31;5093242;28;20074;-69
2023/11/27 10:47:46;;;;;;;2.63;0.40;;;;;;;6.02;57.37;100205.19;5092548;28;20032;-69
2023/11/27 10:50:16;;;;;;;0.45;0.20;;;;;;;6.14;58.30;100194.69;5093026;28;20032;-69
2023/11/27 10:52:49;;;;;;;1.85;0.38;;;;;;;6.15;58.01;100198.91;5092160;28;20028;-69
2023/11/27 10:55:19;;;;;;;0.88;0.30;;;;;;;6.25;57.13;100188.63;5092916;28;20547;-69
2023/11/27 10:57:47;;;;;;;1.08;0.30;;;;;;;6.42;56.88;100176.94;5074203;28;20043;-69
2023/11/27 11:01:01;;;;;;;1.20;0.30;;;;;;;6.52;56.44;100183.81;5092836;28;20406;-70
2023/11/27 11:03:07;;;;;;;1.15;0.30;;;;;;;6.48;57.17;100179.84;5082157;28;20098;-68
2023/11/27 11:05:53;;;;;;;0.73;0.10;;;;;;;6.48;55.60;100172.09;5094706;28;20058;-68
2023/11/27 11:08:23;;;;;;;2.97;0.32;;;;;;;6.47;57.35;100159.25;5092883;28;20034;-69
2023/11/27 11:10:49;;;;;;;2.13;0.40;;;;;;;6.46;56.12;100152.44;5092133;28;20127;-69
2023/11/27 11:13:17;;;;;;;1.10;0.30;;;;;;;6.44;56.61;100156.94;5094182;28;20111;-69
2023/11/27 11:15:51;;;;;;;0.70;0.20;;;;;;;6.46;56.75;100153.25;5092653;28;20028;-69
2023/11/27 11:18:52;;;;;;;0.65;0.20;;;;;;;6.50;55.54;100154.66;5092267;28;20036;-69
2023/11/27 11:21:32;;;;;;;2.72;0.30;;;;;;;6.54;56.50;100150.06;5087458;28;20039;-70
2023/11/27 11:24:15;;;;;;;1.33;0.30;;;;;;;6.58;56.10;100141.09;5084577;28;20073;-69
2023/11/27 11:26:56;;;;;;;2.17;0.32;;;;;;;6.62;56.50;100143.28;5091570;28;20031;-69
2023/11/27 11:29:32;;;;;;;1.83;0.30;;;;;;;6.76;56.04;100138.72;5092145;28;20032;-70
2023/11/27 11:32:04;;;;;;;3.17;0.50;;;;;;;6.85;55.64;100137.97;5084497;28;20560;-70